Pilot Rock, Oregon
Current Conditions -  °F | °C
As of 6:31 AM on Friday 19 Dec 2014 (Local Time) from KPDT Reporting Station
Haze Haze  
Wind Chill: 28°   Ceiling: 5000
Heat Index: 37°   Visibility: 5mi
Dew Point: 37°   Wind: 14mph
Humidity: 100%   Direction: 300°WNW
Pressure: 29.9"   Gusts: NA
Location:  45.48°N, 118.83°W
Report Text: KPDT 191431Z 30012KT 5SM BR FEW032 OVC050 03/03 A2990 RMK AO2 RAE1358 P0000 T00280028
Loading
Personal Weather Stations






























Interactive Weather Map New forecast layout! Learn more

10-Day Weather Forecast

Advertisements
Track Severe Weather on mobile